Terminal Aerodrome Forecast
Issued by NWS Duluth, MN

Home | Current Version | Previous Version | Text Only | Print | Product List | Glossary On
Versions: 1 2 3 4 5 6 7 8 9 10 11 12 13 14 15 16 17 18 19 20 21 22 23 24 25 26 27 28 29 30
000
FTUS43 KDLH 312000 AAA
TAFINL
TAF AMD
KINL 312025Z 3120/0118 15009G16KT P6SM OVC025
     FM312200 18008KT P6SM VCSH SCT030 OVC040
     FM010100 VRB02KT P6SM -SHRA OVC035
     FM010500 28003KT 4SM -DZ BR SCT007 OVC015
     FM010800 30004KT 2SM -DZ BR SCT004 OVC007
     FM011300 30006KT 4SM BR SCT007 BKN015
     FM011500 29008KT P6SM SCT015=

USA.gov is the U.S. government's official web portal to all federal, state and local government web resources and services.